createdAt,value
2022-08-03T00:00:35.250Z, 36.02
2022-08-03T00:01:35.288Z, 36.12
2022-08-03T00:02:35.354Z, 36.15
2022-08-03T00:03:35.388Z, 36.44
2022-08-03T00:04:35.419Z, 36.07
2022-08-03T00:05:35.403Z, 36.21
2022-08-03T00:06:37.262Z, 36.15
2022-08-03T00:07:35.525Z, 35.96
2022-08-03T00:08:37.697Z, 36.13
2022-08-03T00:09:36.001Z, 36.07
2022-08-03T00:10:35.563Z, 36.07
2022-08-03T00:11:35.642Z, 36.01
2022-08-03T00:12:35.641Z, 36.17
2022-08-03T00:13:35.664Z, 36.27
2022-08-03T00:14:35.753Z, 36.26
2022-08-03T00:15:35.718Z, 36.11
2022-08-03T00:16:35.755Z, 36.09
2022-08-03T00:17:52.103Z, 36.15
2022-08-03T00:18:35.814Z, 36.13
2022-08-03T00:19:35.865Z, 35.94
2022-08-03T00:20:35.910Z, 36.10
2022-08-03T00:21:36.011Z, 36.14
2022-08-03T00:22:35.982Z, 36.18
2022-08-03T00:23:52.357Z, 35.78
2022-08-03T00:24:36.092Z, 35.89
2022-08-03T00:25:36.086Z, 36.23
2022-08-03T00:26:36.116Z, 36.42
2022-08-03T00:27:36.141Z, 35.97
2022-08-03T00:28:36.173Z, 36.22
2022-08-03T00:30:00.042Z, 36.14
2022-08-03T00:30:36.252Z, 35.95
2022-08-03T00:31:44.946Z, 36.10
2022-08-03T00:32:36.291Z, 36.08
2022-08-03T00:33:58.664Z, 36.01
2022-08-03T00:34:57.625Z, 36.11
2022-08-03T00:35:50.343Z, 36.00
2022-08-03T00:36:36.462Z, 36.04
2022-08-03T00:37:40.723Z, 35.82
2022-08-03T00:38:36.565Z, 35.80
2022-08-03T00:39:36.551Z, 36.01
2022-08-03T00:40:36.573Z, 36.23
2022-08-03T00:41:36.641Z, 36.14
2022-08-03T00:42:36.651Z, 36.11
2022-08-03T00:43:36.682Z, 36.07
2022-08-03T00:44:36.715Z, 36.30
2022-08-03T00:45:36.753Z, 35.86
2022-08-03T00:46:36.801Z, 36.23
2022-08-03T00:47:36.799Z, 36.10
2022-08-03T00:48:36.840Z, 35.92
2022-08-03T00:49:36.925Z, 36.26
2022-08-03T00:50:36.926Z, 36.40
2022-08-03T00:51:36.962Z, 35.83
2022-08-03T00:52:36.988Z, 35.99
2022-08-03T00:53:37.079Z, 36.20
2022-08-03T00:54:37.070Z, 35.94
2022-08-03T00:55:37.158Z, 36.03
2022-08-03T00:56:37.147Z, 36.09
2022-08-03T00:57:37.144Z, 35.73
2022-08-03T00:58:37.200Z, 35.89
2022-08-03T00:59:37.267Z, 35.92
2022-08-03T01:00:37.310Z, 35.92
2022-08-03T01:01:37.334Z, 36.12
2022-08-03T01:02:37.305Z, 36.13
2022-08-03T01:03:37.351Z, 36.06
2022-08-03T01:04:37.389Z, 35.93
2022-08-03T01:05:37.432Z, 36.25
2022-08-03T01:06:37.538Z, 36.06
2022-08-03T01:07:37.515Z, 35.89
2022-08-03T01:08:37.545Z, 35.85
2022-08-03T01:09:37.585Z, 36.13
2022-08-03T01:10:37.584Z, 36.15
2022-08-03T01:11:37.635Z, 36.06
2022-08-03T01:12:37.731Z, 35.83
2022-08-03T01:14:04.734Z, 36.24
2022-08-03T01:14:37.771Z, 35.96
2022-08-03T01:15:37.827Z, 35.89
2022-08-03T01:16:37.818Z, 35.85
2022-08-03T01:17:37.833Z, 36.27
2022-08-03T01:18:37.847Z, 36.17
2022-08-03T01:19:37.944Z, 35.70
2022-08-03T01:20:37.981Z, 36.04
2022-08-03T01:21:37.985Z, 35.89
2022-08-03T01:22:38.013Z, 35.96
2022-08-03T01:23:38.101Z, 36.01
2022-08-03T01:24:38.080Z, 35.80
2022-08-03T01:25:38.080Z, 36.09
2022-08-03T01:26:38.168Z, 36.13
2022-08-03T01:27:38.197Z, 35.89
2022-08-03T01:28:38.245Z, 35.83
2022-08-03T01:29:38.233Z, 36.10
2022-08-03T01:30:38.261Z, 35.79
2022-08-03T01:32:53.494Z, 35.72
2022-08-03T01:32:59.548Z, 35.89
2022-08-03T01:33:38.360Z, 35.92
2022-08-03T01:34:38.426Z, 35.99
2022-08-03T01:35:39.183Z, 36.09
2022-08-03T01:36:38.515Z, 35.85
2022-08-03T01:37:38.644Z, 36.00
2022-08-03T01:38:38.564Z, 35.81
2022-08-03T01:39:38.593Z, 35.86
2022-08-03T01:40:38.645Z, 35.70
2022-08-03T01:41:38.648Z, 35.97
2022-08-03T01:42:38.708Z, 35.92
2022-08-03T01:43:55.108Z, 36.03
2022-08-03T01:44:38.766Z, 35.90
2022-08-03T01:45:38.769Z, 35.65
2022-08-03T01:46:38.799Z, 35.71
2022-08-03T01:47:38.824Z, 35.79
2022-08-03T01:48:38.850Z, 35.77
2022-08-03T01:49:39.012Z, 35.62
2022-08-03T01:50:38.975Z, 35.60
2022-08-03T01:51:58.588Z, 35.83
2022-08-03T01:52:38.996Z, 35.67
2022-08-03T01:53:39.105Z, 36.06
2022-08-03T01:54:39.143Z, 35.61
2022-08-03T01:55:39.123Z, 35.87
2022-08-03T01:56:39.190Z, 35.83
2022-08-03T01:58:06.125Z, 36.20
2022-08-03T01:58:39.225Z, 35.99
2022-08-03T01:59:39.255Z, 35.83
2022-08-03T02:00:39.365Z, 35.92
2022-08-03T02:02:28.620Z, 36.04
2022-08-03T02:02:39.655Z, 35.72
2022-08-03T02:03:59.930Z, 35.62
2022-08-03T02:04:39.427Z, 36.12
2022-08-03T02:05:39.511Z, 35.71
2022-08-03T02:07:01.548Z, 35.67
2022-08-03T02:07:39.579Z, 35.71
2022-08-03T02:08:39.619Z, 35.84
2022-08-03T02:09:39.606Z, 35.67
2022-08-03T02:10:39.633Z, 35.75
2022-08-03T02:11:39.665Z, 35.69
2022-08-03T02:12:39.757Z, 35.71
2022-08-03T02:13:39.765Z, 35.84
2022-08-03T02:14:39.808Z, 35.76
2022-08-03T02:15:39.844Z, 35.89
2022-08-03T02:16:39.831Z, 35.79
2022-08-03T02:17:40.306Z, 35.87
2022-08-03T02:18:39.887Z, 35.89
2022-08-03T02:19:39.967Z, 35.84
2022-08-03T02:20:39.957Z, 35.45
2022-08-03T02:21:56.468Z, 35.57
2022-08-03T02:22:40.105Z, 35.56
2022-08-03T02:23:40.116Z, 35.57
2022-08-03T02:24:40.153Z, 35.69
2022-08-03T02:25:40.143Z, 35.54
2022-08-03T02:26:40.252Z, 35.58
2022-08-03T02:27:43.462Z, 35.57
2022-08-03T02:28:40.308Z, 35.64
2022-08-03T02:29:40.934Z, 35.63
2022-08-03T02:30:40.338Z, 35.40
2022-08-03T02:31:40.387Z, 35.68
2022-08-03T02:32:40.414Z, 35.46
2022-08-03T02:33:40.429Z, 35.70
2022-08-03T02:34:40.477Z, 35.68
2022-08-03T02:35:40.500Z, 35.59
2022-08-03T02:36:40.486Z, 35.75
2022-08-03T02:37:41.388Z, 35.79
2022-08-03T02:38:40.545Z, 35.57
2022-08-03T02:39:40.572Z, 35.96
2022-08-03T02:40:40.675Z, 35.60
2022-08-03T02:41:40.701Z, 35.82
2022-08-03T02:42:40.667Z, 35.85
2022-08-03T02:44:06.673Z, 35.73
2022-08-03T02:44:40.712Z, 35.61
2022-08-03T02:45:45.118Z, 35.60
2022-08-03T02:46:40.819Z, 35.42
2022-08-03T02:47:54.218Z, 35.43
2022-08-03T02:48:40.841Z, 35.85
2022-08-03T02:49:51.556Z, 35.67
2022-08-03T02:50:40.949Z, 35.67
2022-08-03T02:51:40.957Z, 35.84
2022-08-03T02:52:40.943Z, 35.73
2022-08-03T02:53:40.989Z, 35.72
2022-08-03T02:54:41.029Z, 35.54
2022-08-03T02:55:43.159Z, 35.54
2022-08-03T02:56:41.118Z, 35.51
2022-08-03T02:57:41.173Z, 35.59
2022-08-03T02:58:41.189Z, 35.85
2022-08-03T02:59:41.198Z, 35.55
2022-08-03T03:00:41.292Z, 35.70
2022-08-03T03:01:41.332Z, 35.67
2022-08-03T03:02:43.947Z, 35.63
2022-08-03T03:03:44.828Z, 35.68
2022-08-03T03:04:59.700Z, 35.59
2022-08-03T03:05:55.277Z, 35.63
2022-08-03T03:06:41.421Z, 35.60
2022-08-03T03:07:51.707Z, 35.54
2022-08-03T03:08:41.540Z, 35.56
2022-08-03T03:09:43.126Z, 35.63
2022-08-03T03:10:41.539Z, 35.64
2022-08-03T03:11:41.592Z, 35.58
2022-08-03T03:12:41.607Z, 35.64
2022-08-03T03:13:41.636Z, 35.94
2022-08-03T03:14:41.654Z, 35.83
2022-08-03T03:15:41.698Z, 35.64
2022-08-03T03:16:41.755Z, 35.48
2022-08-03T03:17:41.832Z, 35.46
2022-08-03T03:18:41.856Z, 35.88
2022-08-03T03:19:41.842Z, 35.56
2022-08-03T03:20:41.901Z, 35.57
2022-08-03T03:21:41.901Z, 35.61
2022-08-03T03:22:41.940Z, 35.59
2022-08-03T03:23:41.975Z, 35.77
2022-08-03T03:24:42.004Z, 35.42
2022-08-03T03:25:42.035Z, 35.70
2022-08-03T03:26:42.548Z, 35.61
2022-08-03T03:27:42.117Z, 35.68
2022-08-03T03:28:42.120Z, 35.70
2022-08-03T03:29:42.173Z, 35.77
2022-08-03T03:30:42.208Z, 35.78
2022-08-03T03:31:42.257Z, 35.96
2022-08-03T03:32:42.333Z, 35.47
2022-08-03T03:33:42.335Z, 35.41
2022-08-03T03:34:42.343Z, 35.82
2022-08-03T03:35:42.371Z, 35.52
2022-08-03T03:36:42.404Z, 35.44
2022-08-03T03:37:42.468Z, 35.43
2022-08-03T03:38:42.465Z, 35.48
2022-08-03T03:39:42.504Z, 35.35
2022-08-03T03:40:42.542Z, 35.63
2022-08-03T03:41:42.584Z, 35.64
2022-08-03T03:42:42.665Z, 35.38
2022-08-03T03:43:42.646Z, 35.60
2022-08-03T03:44:42.665Z, 35.28
2022-08-03T03:45:42.721Z, 35.47
2022-08-03T03:46:42.796Z, 35.40
2022-08-03T03:47:42.846Z, 35.60
2022-08-03T03:48:42.891Z, 35.37
2022-08-03T03:49:42.873Z, 35.69
2022-08-03T03:50:42.902Z, 35.47
2022-08-03T03:51:42.923Z, 35.38
2022-08-03T03:52:42.952Z, 35.60
2022-08-03T03:53:42.984Z, 35.61
2022-08-03T03:54:43.039Z, 35.62
2022-08-03T03:56:01.838Z, 35.82
2022-08-03T03:56:43.090Z, 35.63
2022-08-03T03:57:43.115Z, 35.47
2022-08-03T03:58:43.123Z, 35.31
2022-08-03T03:59:43.154Z, 35.52
2022-08-03T04:00:43.293Z, 35.25
2022-08-03T04:01:43.232Z, 35.52
2022-08-03T04:02:43.269Z, 35.45
2022-08-03T04:03:43.351Z, 35.75
2022-08-03T04:04:43.350Z, 35.46
2022-08-03T04:05:45.939Z, 35.56
2022-08-03T04:06:43.425Z, 35.49
2022-08-03T04:07:43.412Z, 35.40
2022-08-03T04:08:43.472Z, 35.38
2022-08-03T04:09:43.475Z, 35.32
2022-08-03T04:10:43.522Z, 35.51
2022-08-03T04:11:43.562Z, 35.45
2022-08-03T04:12:50.279Z, 35.40
2022-08-03T04:13:43.640Z, 35.82
2022-08-03T04:14:43.653Z, 35.76
2022-08-03T04:15:43.702Z, 35.53
2022-08-03T04:16:44.057Z, 35.52
2022-08-03T04:17:43.730Z, 35.49
2022-08-03T04:18:43.771Z, 35.62
2022-08-03T04:19:43.834Z, 35.51
2022-08-03T04:20:43.874Z, 35.62
2022-08-03T04:21:43.891Z, 35.74
2022-08-03T04:22:43.914Z, 35.69
2022-08-03T04:23:43.971Z, 35.59
2022-08-03T04:24:43.987Z, 35.58
2022-08-03T04:25:44.026Z, 35.86
2022-08-03T04:26:44.072Z, 35.60
2022-08-03T04:27:44.098Z, 35.53
2022-08-03T04:28:44.192Z, 35.65
2022-08-03T04:29:44.757Z, 35.43
2022-08-03T04:30:44.213Z, 35.76
2022-08-03T04:31:44.249Z, 35.23
2022-08-03T04:32:45.925Z, 35.49
2022-08-03T04:33:44.322Z, 35.55
2022-08-03T04:34:44.353Z, 35.54
2022-08-03T04:36:01.712Z, 35.44
2022-08-03T04:36:44.469Z, 35.60
2022-08-03T04:37:44.449Z, 35.51
2022-08-03T04:38:44.479Z, 35.51
2022-08-03T04:40:44.518Z, 35.36
2022-08-03T04:42:07.579Z, 35.53
2022-08-03T04:42:44.636Z, 35.49
2022-08-03T04:43:44.684Z, 35.50
2022-08-03T04:44:44.677Z, 35.70
2022-08-03T04:45:44.724Z, 35.80
2022-08-03T04:46:46.775Z, 35.43
2022-08-03T04:47:44.819Z, 35.48
2022-08-03T04:48:44.939Z, 35.50
2022-08-03T04:49:44.859Z, 35.54
2022-08-03T04:50:44.876Z, 35.76
2022-08-03T04:51:44.904Z, 35.57
2022-08-03T04:52:44.989Z, 35.59
2022-08-03T04:53:44.976Z, 35.52
2022-08-03T04:54:50.309Z, 35.44
2022-08-03T04:55:45.086Z, 35.51
2022-08-03T04:56:45.100Z, 35.56
2022-08-03T04:57:45.128Z, 35.60
2022-08-03T04:58:45.158Z, 35.80
2022-08-03T04:59:45.170Z, 35.91
2022-08-03T05:00:45.242Z, 35.39
2022-08-03T05:01:45.415Z, 35.43
2022-08-03T05:02:45.295Z, 35.67
2022-08-03T05:03:45.362Z, 35.73
2022-08-03T05:04:45.356Z, 35.57
2022-08-03T05:05:50.261Z, 35.47
2022-08-03T05:06:48.387Z, 35.66
2022-08-03T05:07:45.427Z, 35.84
2022-08-03T05:08:47.051Z, 35.58
2022-08-03T05:09:50.574Z, 35.52
2022-08-03T05:10:45.511Z, 35.45
2022-08-03T05:11:45.566Z, 35.53
2022-08-03T05:12:45.674Z, 35.57
2022-08-03T05:13:45.644Z, 35.80
2022-08-03T05:14:45.665Z, 35.45
2022-08-03T05:15:45.731Z, 35.58
2022-08-03T05:16:45.781Z, 35.38
2022-08-03T05:17:45.813Z, 35.69
2022-08-03T05:18:45.870Z, 35.64
2022-08-03T05:19:45.851Z, 35.68
2022-08-03T05:20:45.914Z, 35.48
2022-08-03T05:21:52.475Z, 35.65
2022-08-03T05:22:45.968Z, 35.45
2022-08-03T05:23:45.981Z, 35.42
2022-08-03T05:24:46.070Z, 35.75
2022-08-03T05:25:49.895Z, 35.78
2022-08-03T05:26:46.084Z, 35.46
2022-08-03T05:27:46.136Z, 35.40
2022-08-03T05:28:50.913Z, 35.80
2022-08-03T05:29:46.199Z, 35.68
2022-08-03T05:30:46.264Z, 35.72
2022-08-03T05:31:46.308Z, 35.79
2022-08-03T05:32:46.285Z, 36.00
2022-08-03T05:33:46.317Z, 35.79
2022-08-03T05:34:46.398Z, 35.88
2022-08-03T05:35:57.235Z, 35.78
2022-08-03T05:36:46.405Z, 36.16
2022-08-03T05:37:54.590Z, 36.26
2022-08-03T05:38:46.511Z, 35.87
2022-08-03T05:39:46.502Z, 35.84
2022-08-03T05:40:56.685Z, 36.11
2022-08-03T05:41:46.566Z, 35.48
2022-08-03T05:42:46.585Z, 35.66
2022-08-03T05:43:46.626Z, 35.80
2022-08-03T05:44:46.646Z, 36.16
2022-08-03T05:45:46.678Z, 35.89
2022-08-03T05:46:46.736Z, 35.85
2022-08-03T05:47:46.806Z, 35.84
2022-08-03T05:48:46.791Z, 36.10
2022-08-03T05:49:46.805Z, 36.09
2022-08-03T05:50:46.834Z, 35.92
2022-08-03T05:51:46.962Z, 36.10
2022-08-03T05:52:47.075Z, 36.26
2022-08-03T05:53:47.104Z, 36.08
2022-08-03T05:54:56.736Z, 36.14
2022-08-03T05:55:50.237Z, 36.14
2022-08-03T05:56:47.215Z, 35.97
2022-08-03T05:57:47.241Z, 36.25
2022-08-03T05:58:47.760Z, 35.88
2022-08-03T05:59:53.929Z, 36.01
2022-08-03T06:00:47.354Z, 36.22
2022-08-03T06:01:47.414Z, 35.99
2022-08-03T06:02:47.356Z, 36.15
2022-08-03T06:03:47.384Z, 36.07
2022-08-03T06:04:47.497Z, 36.46
2022-08-03T06:05:59.948Z, 36.25
2022-08-03T06:06:47.635Z, 36.10
2022-08-03T06:07:47.633Z, 36.52
2022-08-03T06:08:47.633Z, 36.10
2022-08-03T06:10:33.396Z, 36.53
2022-08-03T06:10:47.645Z, 36.39
2022-08-03T06:11:47.665Z, 36.47
2022-08-03T06:12:47.782Z, 36.15
2022-08-03T06:13:47.784Z, 36.40
2022-08-03T06:14:47.782Z, 36.32
2022-08-03T06:15:47.808Z, 36.43
2022-08-03T06:16:47.912Z, 36.39
2022-08-03T06:17:47.917Z, 36.07
2022-08-03T06:18:48.172Z, 36.09
2022-08-03T06:19:47.919Z, 36.44
2022-08-03T06:20:49.431Z, 36.55
2022-08-03T06:21:48.005Z, 36.12
2022-08-03T06:22:50.980Z, 36.46
2022-08-03T06:23:52.866Z, 36.44
2022-08-03T06:24:53.816Z, 36.31
2022-08-03T06:25:48.348Z, 36.47
2022-08-03T06:26:48.351Z, 36.41
2022-08-03T06:27:48.349Z, 36.30
2022-08-03T06:28:52.674Z, 36.43
2022-08-03T06:29:48.376Z, 36.27
2022-08-03T06:30:48.350Z, 36.48
2022-08-03T06:34:32.154Z, 36.60
2022-08-03T06:34:48.546Z, 36.60
2022-08-03T06:35:48.524Z, 36.14
2022-08-03T06:36:48.693Z, 36.37
2022-08-03T06:37:48.695Z, 36.27
2022-08-03T06:38:48.689Z, 36.45
2022-08-03T06:39:48.716Z, 36.43
2022-08-03T06:40:48.790Z, 36.69
2022-08-03T06:41:48.824Z, 36.62
2022-08-03T06:42:48.823Z, 36.63
2022-08-03T06:44:03.507Z, 36.57
2022-08-03T06:44:48.826Z, 36.51
2022-08-03T06:45:48.850Z, 36.37
2022-08-03T06:46:48.846Z, 36.24
2022-08-03T06:47:48.882Z, 36.47
2022-08-03T06:48:48.887Z, 36.51
2022-08-03T06:50:12.989Z, 36.66
2022-08-03T06:50:48.955Z, 36.67
2022-08-03T06:52:04.955Z, 36.52
2022-08-03T06:52:48.989Z, 36.62
2022-08-03T06:53:49.138Z, 36.64
2022-08-03T06:55:54.199Z, 36.27
2022-08-03T06:56:49.306Z, 36.44
2022-08-03T06:57:49.304Z, 36.65
2022-08-03T06:58:49.305Z, 36.58
2022-08-03T07:00:08.894Z, 36.89
2022-08-03T07:00:49.483Z, 36.81
2022-08-03T07:01:49.576Z, 36.74
2022-08-03T07:02:49.474Z, 36.58
2022-08-03T07:03:52.481Z, 36.32
2022-08-03T07:04:49.505Z, 36.54
2022-08-03T07:05:49.649Z, 36.87
2022-08-03T07:06:49.646Z, 36.83
2022-08-03T07:07:49.674Z, 36.54
2022-08-03T07:08:52.885Z, 36.67
2022-08-03T07:09:56.793Z, 36.51
2022-08-03T07:10:49.822Z, 36.45
2022-08-03T07:11:49.815Z, 36.79
2022-08-03T07:12:55.597Z, 36.80
2022-08-03T07:13:49.828Z, 36.74
2022-08-03T07:14:49.843Z, 37.00
2022-08-03T07:15:55.828Z, 36.79
2022-08-03T07:16:49.996Z, 36.86
2022-08-03T07:17:49.995Z, 36.77
2022-08-03T07:18:50.024Z, 36.55
2022-08-03T07:19:50.162Z, 36.91
2022-08-03T07:20:50.165Z, 36.64
2022-08-03T07:21:50.171Z, 36.76
2022-08-03T07:22:50.188Z, 36.67
2022-08-03T07:23:50.171Z, 36.85
2022-08-03T07:24:50.194Z, 36.95
2022-08-03T07:25:50.203Z, 36.81
2022-08-03T07:26:50.221Z, 36.70
2022-08-03T07:27:51.878Z, 36.75
2022-08-03T07:28:50.243Z, 36.73
2022-08-03T07:29:50.244Z, 36.89
2022-08-03T07:30:50.260Z, 36.86
2022-08-03T07:31:50.297Z, 36.77
2022-08-03T07:32:50.862Z, 36.73
2022-08-03T07:33:50.362Z, 36.80
2022-08-03T07:34:50.398Z, 37.01
2022-08-03T07:35:50.434Z, 36.75
2022-08-03T07:36:50.523Z, 36.92
2022-08-03T07:37:54.671Z, 37.13
2022-08-03T07:38:50.588Z, 36.72
2022-08-03T07:39:50.598Z, 36.91
2022-08-03T07:40:50.621Z, 36.06
2022-08-03T07:41:50.667Z, 36.67
2022-08-03T07:42:53.394Z, 36.87
2022-08-03T07:43:50.720Z, 36.95
2022-08-03T07:44:50.833Z, 36.97
2022-08-03T07:45:50.809Z, 36.69
2022-08-03T07:46:50.824Z, 36.57
2022-08-03T07:47:53.605Z, 36.31
2022-08-03T07:48:50.913Z, 36.36
2022-08-03T07:49:50.943Z, 36.82
2022-08-03T07:50:50.951Z, 36.01
2022-08-03T07:51:51.080Z, 36.38
2022-08-03T07:52:51.024Z, 36.66
2022-08-03T07:53:51.056Z, 36.89
2022-08-03T07:54:51.070Z, 36.55
2022-08-03T07:55:51.153Z, 36.92
2022-08-03T07:56:51.154Z, 36.56
2022-08-03T07:57:51.170Z, 36.23
2022-08-03T07:58:51.265Z, 36.03
2022-08-03T08:00:01.247Z, 35.83
2022-08-03T08:00:51.367Z, 36.73
2022-08-03T08:01:51.410Z, 36.65
2022-08-03T08:02:51.339Z, 36.74
2022-08-03T08:03:52.802Z, 36.49
2022-08-03T08:04:51.435Z, 36.52
2022-08-03T08:05:51.467Z, 36.89
2022-08-03T08:06:51.501Z, 36.91
2022-08-03T08:07:51.873Z, 36.40
2022-08-03T08:08:51.601Z, 36.53
2022-08-03T08:09:51.590Z, 36.71
2022-08-03T08:10:58.143Z, 36.58
2022-08-03T08:11:51.669Z, 36.68
2022-08-03T08:12:51.710Z, 36.58
2022-08-03T08:13:51.746Z, 36.87
2022-08-03T08:14:51.933Z, 36.74
2022-08-03T08:15:51.898Z, 36.86
2022-08-03T08:16:51.842Z, 36.90
2022-08-03T08:17:51.932Z, 36.83
2022-08-03T08:18:51.910Z, 36.79
2022-08-03T08:19:53.518Z, 36.96
2022-08-03T08:20:51.991Z, 36.64
2022-08-03T08:21:54.000Z, 36.47
2022-08-03T08:22:52.045Z, 36.55
2022-08-03T08:23:56.992Z, 36.57
2022-08-03T08:24:52.182Z, 36.41
2022-08-03T08:25:52.225Z, 36.75
2022-08-03T08:26:52.268Z, 36.14
2022-08-03T08:28:30.434Z, 36.35
2022-08-03T08:28:52.331Z, 36.82
2022-08-03T08:29:55.286Z, 36.11
2022-08-03T08:30:52.394Z, 36.71
2022-08-03T08:31:52.383Z, 36.68
2022-08-03T08:32:52.414Z, 36.73
2022-08-03T08:34:04.634Z, 36.56
2022-08-03T08:34:52.464Z, 36.93
2022-08-03T08:35:52.503Z, 36.07
2022-08-03T08:36:52.550Z, 36.10
2022-08-03T08:37:52.593Z, 36.84
2022-08-03T08:38:52.612Z, 36.07
2022-08-03T08:39:52.659Z, 35.98
2022-08-03T08:40:52.733Z, 35.92
2022-08-03T08:41:53.403Z, 36.17
2022-08-03T08:42:59.085Z, 35.82
2022-08-03T08:43:58.174Z, 36.20
2022-08-03T08:44:52.831Z, 36.50
2022-08-03T08:45:52.852Z, 35.89
2022-08-03T08:46:52.872Z, 36.22
2022-08-03T08:47:55.697Z, 36.54
2022-08-03T08:48:53.181Z, 36.03
2022-08-03T08:50:08.792Z, 35.78
2022-08-03T08:50:53.008Z, 35.88
2022-08-03T08:52:00.454Z, 36.13
2022-08-03T08:52:53.040Z, 35.86
2022-08-03T08:53:53.101Z, 36.34
2022-08-03T08:54:53.122Z, 36.78
2022-08-03T08:55:59.732Z, 36.54
2022-08-03T08:56:53.204Z, 35.87
2022-08-03T08:57:53.220Z, 35.84
2022-08-03T08:58:53.257Z, 35.85
2022-08-03T08:59:57.180Z, 35.75
2022-08-03T09:00:53.462Z, 35.85
2022-08-03T09:01:53.385Z, 36.21
2022-08-03T09:02:53.407Z, 35.82
2022-08-03T09:03:53.434Z, 35.99
2022-08-03T09:04:53.460Z, 36.00
2022-08-03T09:05:56.079Z, 35.77
2022-08-03T09:07:10.814Z, 36.45
2022-08-03T09:07:53.646Z, 35.87
2022-08-03T09:08:53.643Z, 35.94
2022-08-03T09:10:11.496Z, 35.79
2022-08-03T09:10:53.742Z, 35.85
2022-08-03T09:12:00.885Z, 35.88
2022-08-03T09:12:53.739Z, 35.76
2022-08-03T09:13:53.763Z, 35.92
2022-08-03T09:15:14.868Z, 36.52
2022-08-03T09:16:00.833Z, 36.45
2022-08-03T09:16:53.890Z, 36.00
2022-08-03T09:17:53.960Z, 35.88
2022-08-03T09:18:53.946Z, 35.85
2022-08-03T09:20:03.626Z, 35.86
2022-08-03T09:20:54.006Z, 35.87
2022-08-03T09:21:54.040Z, 35.85
2022-08-03T09:22:54.065Z, 35.96
2022-08-03T09:24:02.162Z, 35.95
2022-08-03T09:25:14.702Z, 36.41
2022-08-03T09:25:54.155Z, 36.01
2022-08-03T09:26:54.274Z, 35.81
2022-08-03T09:27:54.189Z, 36.39
2022-08-03T09:29:00.860Z, 35.95
2022-08-03T09:29:54.326Z, 36.16
2022-08-03T09:30:54.306Z, 36.09
2022-08-03T09:31:54.353Z, 35.91
2022-08-03T09:32:54.411Z, 35.84
2022-08-03T09:33:54.428Z, 35.86
2022-08-03T09:34:58.104Z, 35.83
2022-08-03T09:35:55.301Z, 36.35
2022-08-03T09:36:54.490Z, 36.40
2022-08-03T09:38:12.466Z, 36.45
2022-08-03T09:38:54.558Z, 36.80
2022-08-03T09:39:54.646Z, 35.93
2022-08-03T09:40:59.234Z, 35.94
2022-08-03T09:41:54.655Z, 36.14
2022-08-03T09:42:54.665Z, 36.39
2022-08-03T09:43:54.684Z, 36.12
2022-08-03T09:44:54.703Z, 36.04
2022-08-03T09:45:54.780Z, 35.88
2022-08-03T09:46:54.787Z, 35.99
2022-08-03T09:47:54.801Z, 35.85
2022-08-03T09:48:54.954Z, 36.52
2022-08-03T09:49:54.861Z, 36.53
2022-08-03T09:50:57.113Z, 35.95
2022-08-03T09:52:32.221Z, 35.92
2022-08-03T09:52:54.973Z, 35.85
2022-08-03T09:53:58.488Z, 35.95
2022-08-03T09:54:55.033Z, 36.15
2022-08-03T09:56:34.313Z, 35.98
2022-08-03T09:56:55.105Z, 36.38
2022-08-03T09:57:55.133Z, 36.37
2022-08-03T09:58:55.179Z, 36.04
2022-08-03T10:00:01.904Z, 36.27
2022-08-03T10:00:55.532Z, 35.97
2022-08-03T10:01:55.340Z, 35.92
2022-08-03T10:02:55.319Z, 35.97
2022-08-03T10:04:04.130Z, 36.50
2022-08-03T10:04:55.408Z, 36.21
2022-08-03T10:05:59.594Z, 35.92
2022-08-03T10:06:55.493Z, 35.84
2022-08-03T10:07:55.475Z, 35.96
2022-08-03T10:08:55.521Z, 35.88
2022-08-03T10:09:55.559Z, 35.88
2022-08-03T10:10:55.537Z, 35.99
2022-08-03T10:11:55.617Z, 35.92
2022-08-03T10:12:55.605Z, 35.95
2022-08-03T10:14:01.191Z, 35.94
2022-08-03T10:14:55.673Z, 35.85
2022-08-03T10:16:22.134Z, 35.84
2022-08-03T10:16:55.779Z, 36.08
2022-08-03T10:17:55.794Z, 36.81
2022-08-03T10:18:55.826Z, 35.98
2022-08-03T10:19:55.859Z, 35.88
2022-08-03T10:20:55.959Z, 35.77
2022-08-03T10:21:55.928Z, 35.87
2022-08-03T10:22:55.988Z, 35.91
2022-08-03T10:23:56.011Z, 36.48
2022-08-03T10:24:56.103Z, 35.89
2022-08-03T10:25:56.072Z, 35.84
2022-08-03T10:26:56.097Z, 35.83
2022-08-03T10:27:56.119Z, 36.40
2022-08-03T10:28:56.165Z, 35.96
2022-08-03T10:29:56.194Z, 35.80
2022-08-03T10:30:56.315Z, 36.04
2022-08-03T10:31:57.855Z, 36.08
2022-08-03T10:32:56.351Z, 36.46
2022-08-03T10:33:56.352Z, 36.16
2022-08-03T10:35:00.264Z, 36.34
2022-08-03T10:35:56.398Z, 36.56
2022-08-03T10:36:56.412Z, 36.28
2022-08-03T10:37:57.311Z, 36.05
2022-08-03T10:38:56.481Z, 36.19
2022-08-03T10:39:56.581Z, 35.84
2022-08-03T10:40:59.064Z, 36.10
2022-08-03T10:41:56.585Z, 36.30
2022-08-03T10:42:56.659Z, 35.83
2022-08-03T10:43:56.678Z, 36.22
2022-08-03T10:44:56.720Z, 36.07
2022-08-03T10:45:56.713Z, 36.02
2022-08-03T10:46:56.739Z, 36.10
2022-08-03T10:47:56.774Z, 36.11
2022-08-03T10:48:56.964Z, 36.08
2022-08-03T10:49:56.948Z, 35.84
2022-08-03T10:50:56.923Z, 36.33
2022-08-03T10:51:56.919Z, 36.39
2022-08-03T10:52:56.934Z, 36.07
2022-08-03T10:53:57.058Z, 36.15
2022-08-03T10:54:57.034Z, 35.72
2022-08-03T10:55:57.130Z, 36.29
2022-08-03T10:56:57.120Z, 35.76
2022-08-03T10:57:58.719Z, 35.84
2022-08-03T10:58:58.101Z, 36.01
2022-08-03T10:59:57.189Z, 36.04
2022-08-03T11:00:57.353Z, 35.91
2022-08-03T11:01:59.964Z, 36.19
2022-08-03T11:02:57.321Z, 36.42
2022-08-03T11:03:57.344Z, 36.29
2022-08-03T11:04:57.438Z, 36.20
2022-08-03T11:05:57.465Z, 36.44
2022-08-03T11:06:57.518Z, 36.07
2022-08-03T11:07:57.462Z, 36.01
2022-08-03T11:08:57.475Z, 36.10
2022-08-03T11:09:57.535Z, 36.27
2022-08-03T11:10:57.621Z, 36.30
2022-08-03T11:11:57.614Z, 36.07
2022-08-03T11:12:57.625Z, 36.21
2022-08-03T11:13:57.658Z, 36.11
2022-08-03T11:14:57.684Z, 36.44
2022-08-03T11:16:01.736Z, 36.24
2022-08-03T11:16:57.798Z, 36.29
2022-08-03T11:17:57.795Z, 36.20
2022-08-03T11:18:57.863Z, 36.20
2022-08-03T11:19:58.596Z, 36.21
2022-08-03T11:20:57.974Z, 36.15
2022-08-03T11:21:57.961Z, 36.10
2022-08-03T11:22:57.952Z, 36.03
2022-08-03T11:24:02.717Z, 36.18
2022-08-03T11:24:58.030Z, 35.94
2022-08-03T11:25:58.062Z, 36.06
2022-08-03T11:26:58.150Z, 36.33
2022-08-03T11:27:58.138Z, 36.21
2022-08-03T11:28:58.173Z, 36.08
2022-08-03T11:29:58.257Z, 36.21
2022-08-03T11:30:58.304Z, 36.08
2022-08-03T11:31:58.298Z, 35.90
2022-08-03T11:32:58.348Z, 36.20
2022-08-03T11:33:58.336Z, 36.00
2022-08-03T11:34:58.373Z, 35.97
2022-08-03T11:35:58.406Z, 36.15
2022-08-03T11:36:58.469Z, 36.00
2022-08-03T11:38:04.571Z, 35.99
2022-08-03T11:38:58.586Z, 36.07
2022-08-03T11:39:58.586Z, 36.18
2022-08-03T11:40:58.580Z, 36.07
2022-08-03T11:41:58.640Z, 35.99
2022-08-03T11:42:58.644Z, 35.76
2022-08-03T11:43:58.676Z, 35.93
2022-08-03T11:44:58.694Z, 36.11
2022-08-03T11:45:58.728Z, 35.95
2022-08-03T11:46:58.832Z, 36.24
2022-08-03T11:47:58.812Z, 36.01
2022-08-03T11:48:58.876Z, 35.99
2022-08-03T11:49:58.942Z, 36.09
2022-08-03T11:50:58.912Z, 35.84
2022-08-03T11:51:58.927Z, 36.11
2022-08-03T11:52:58.938Z, 36.45
2022-08-03T11:53:59.043Z, 36.34
2022-08-03T11:54:59.030Z, 36.17
2022-08-03T11:55:59.081Z, 36.18
2022-08-03T11:56:59.238Z, 35.96
2022-08-03T11:59:01.178Z, 36.49
2022-08-03T11:59:18.284Z, 36.34
2022-08-03T11:59:59.221Z, 36.55
2022-08-03T12:00:59.225Z, 36.37
2022-08-03T12:01:59.352Z, 36.24
2022-08-03T12:02:59.403Z, 36.41
2022-08-03T12:03:59.345Z, 36.42
2022-08-03T12:04:59.438Z, 36.56
2022-08-03T12:05:59.435Z, 36.35
2022-08-03T12:06:59.441Z, 36.45
2022-08-03T12:08:03.905Z, 36.52
2022-08-03T12:08:59.531Z, 36.26
2022-08-03T12:09:59.602Z, 36.00
2022-08-03T12:11:00.145Z, 36.55
2022-08-03T12:12:01.145Z, 36.16
2022-08-03T12:12:59.644Z, 36.43
2022-08-03T12:14:48.824Z, 36.35
2022-08-03T12:14:59.698Z, 36.13
2022-08-03T12:15:59.752Z, 36.45
2022-08-03T12:16:59.801Z, 35.78
2022-08-03T12:17:59.827Z, 36.35
2022-08-03T12:18:59.884Z, 36.39
2022-08-03T12:19:59.968Z, 35.84
2022-08-03T12:21:00.012Z, 36.43
2022-08-03T12:22:00.030Z, 36.15
2022-08-03T12:23:00.009Z, 36.09
2022-08-03T12:24:00.171Z, 36.21
2022-08-03T12:25:00.110Z, 36.25
2022-08-03T12:26:00.113Z, 36.25
2022-08-03T12:27:00.328Z, 36.28
2022-08-03T12:28:00.181Z, 36.21
2022-08-03T12:29:00.218Z, 36.14
2022-08-03T12:30:00.284Z, 36.29
2022-08-03T12:31:00.285Z, 36.18
2022-08-03T12:32:00.310Z, 36.14
2022-08-03T12:33:00.337Z, 36.08